createdAt,value
2019-02-21T00:00:39.711Z,1021.45
2019-02-21T00:01:39.701Z,1021.48
2019-02-21T00:02:39.735Z,1021.51
2019-02-21T00:03:39.679Z,1021.58
2019-02-21T00:04:39.685Z,1021.47
2019-02-21T00:05:39.697Z,1021.49
2019-02-21T00:06:39.639Z,1021.53
2019-02-21T00:07:39.644Z,1021.57
2019-02-21T00:08:39.631Z,1021.54
2019-02-21T00:09:39.643Z,1021.47
2019-02-21T00:10:39.612Z,1021.48
2019-02-21T00:11:39.626Z,1021.44
2019-02-21T00:12:39.576Z,1021.43
2019-02-21T00:13:39.571Z,1021.43
2019-02-21T00:14:39.560Z,1021.45
2019-02-21T00:15:39.566Z,1021.46
2019-02-21T00:16:39.562Z,1021.55
2019-02-21T00:17:39.522Z,1021.49
2019-02-21T00:18:39.641Z,1021.51
2019-02-21T00:19:39.511Z,1021.49
2019-02-21T00:20:39.491Z,1021.53
2019-02-21T00:21:39.480Z,1021.54
2019-02-21T00:22:39.491Z,1021.54
2019-02-21T00:23:39.457Z,1021.54
2019-02-21T00:24:40.129Z,1021.55
2019-02-21T00:25:39.437Z,1021.49
2019-02-21T00:26:39.431Z,1021.52
2019-02-21T00:27:39.444Z,1021.53
2019-02-21T00:28:39.423Z,1021.58
2019-02-21T00:29:39.392Z,1021.53
2019-02-21T00:30:39.398Z,1021.54
2019-02-21T00:31:40.152Z,1021.46
2019-02-21T00:32:39.386Z,1021.37
2019-02-21T00:33:39.359Z,1021.44
2019-02-21T00:34:39.529Z,1021.38
2019-02-21T00:35:39.330Z,1021.42
2019-02-21T00:36:39.315Z,1021.44
2019-02-21T00:37:39.344Z,1021.44
2019-02-21T00:38:39.301Z,1021.39
2019-02-21T00:39:39.288Z,1021.37
2019-02-21T00:40:39.269Z,1021.39
2019-02-21T00:41:39.261Z,1021.42
2019-02-21T00:42:39.244Z,1021.49
2019-02-21T00:43:39.253Z,1021.48
2019-02-21T00:44:39.231Z,1021.47
2019-02-21T00:45:39.214Z,1021.58
2019-02-21T00:46:39.235Z,1021.57
2019-02-21T00:47:39.197Z,1021.50
2019-02-21T00:48:39.202Z,1021.49
2019-02-21T00:49:39.173Z,1021.49
2019-02-21T00:50:39.238Z,1021.49
2019-02-21T00:51:39.181Z,1021.50
2019-02-21T00:52:39.136Z,1021.57
2019-02-21T00:53:39.130Z,1021.52
2019-02-21T00:54:39.138Z,1021.51
2019-02-21T00:55:39.138Z,1021.45
2019-02-21T00:56:39.098Z,1021.52
2019-02-21T00:57:39.105Z,1021.44
2019-02-21T00:58:39.087Z,1021.46
2019-02-21T00:59:39.055Z,1021.45
2019-02-21T01:00:46.545Z,1021.47
2019-02-21T01:01:40.095Z,1021.48
2019-02-21T01:02:39.031Z,1021.52
2019-02-21T01:03:39.016Z,1021.45
2019-02-21T01:04:39.006Z,1021.52
2019-02-21T01:05:38.991Z,1021.51
2019-02-21T01:06:38.984Z,1021.54
2019-02-21T01:07:39.004Z,1021.55
2019-02-21T01:08:38.963Z,1021.58
2019-02-21T01:09:38.954Z,1021.54
2019-02-21T01:10:38.943Z,1021.60
2019-02-21T01:11:38.927Z,1021.56
2019-02-21T01:12:38.935Z,1021.57
2019-02-21T01:13:38.935Z,1021.51
2019-02-21T01:14:39.007Z,1021.58
2019-02-21T01:15:38.885Z,1021.55
2019-02-21T01:16:38.871Z,1021.60
2019-02-21T01:17:38.870Z,1021.64
2019-02-21T01:18:38.874Z,1021.66
2019-02-21T01:19:38.840Z,1021.66
2019-02-21T01:20:38.828Z,1021.66
2019-02-21T01:21:38.823Z,1021.67
2019-02-21T01:22:38.810Z,1021.68
2019-02-21T01:23:38.803Z,1021.75
2019-02-21T01:24:38.805Z,1021.68
2019-02-21T01:25:38.777Z,1021.72
2019-02-21T01:26:38.785Z,1021.71
2019-02-21T01:27:38.754Z,1021.79
2019-02-21T01:28:38.750Z,1021.72
2019-02-21T01:29:38.729Z,1021.75
2019-02-21T01:30:38.810Z,1021.73
2019-02-21T01:31:38.711Z,1021.72
2019-02-21T01:32:38.702Z,1021.77
2019-02-21T01:33:38.729Z,1021.77
2019-02-21T01:34:38.678Z,1021.79
2019-02-21T01:35:38.702Z,1021.74
2019-02-21T01:36:38.656Z,1021.76
2019-02-21T01:37:38.643Z,1021.76
2019-02-21T01:38:38.674Z,1021.77
2019-02-21T01:39:38.629Z,1021.76
2019-02-21T01:40:38.609Z,1021.74
2019-02-21T01:41:38.725Z,1021.69
2019-02-21T01:42:38.591Z,1021.69
2019-02-21T01:43:38.614Z,1021.68
2019-02-21T01:44:38.569Z,1021.68
2019-02-21T01:45:38.567Z,1021.70
2019-02-21T01:46:38.541Z,1021.77
2019-02-21T01:47:38.542Z,1021.73
2019-02-21T01:48:38.565Z,1021.68
2019-02-21T01:49:38.535Z,1021.69
2019-02-21T01:50:38.510Z,1021.76
2019-02-21T01:51:38.485Z,1021.70
2019-02-21T01:52:38.481Z,1021.71
2019-02-21T01:53:38.471Z,1021.71
2019-02-21T01:54:38.479Z,1021.71
2019-02-21T01:55:38.453Z,1021.75
2019-02-21T01:56:38.432Z,1021.75
2019-02-21T01:57:38.541Z,1021.73
2019-02-21T01:58:38.450Z,1021.76
2019-02-21T01:59:38.402Z,1021.85
2019-02-21T02:00:38.418Z,1021.85
2019-02-21T02:01:38.383Z,1021.78
2019-02-21T02:02:38.371Z,1021.75
2019-02-21T02:03:38.364Z,1021.81
2019-02-21T02:04:38.375Z,1021.80
2019-02-21T02:05:38.342Z,1021.79
2019-02-21T02:06:38.370Z,1021.86
2019-02-21T02:07:38.314Z,1021.89
2019-02-21T02:08:38.309Z,1021.95
2019-02-21T02:09:38.289Z,1022.02
2019-02-21T02:10:38.278Z,1021.96
2019-02-21T02:11:38.277Z,1021.96
2019-02-21T02:12:38.280Z,1021.95
2019-02-21T02:13:38.350Z,1021.95
2019-02-21T02:14:38.237Z,1022.02
2019-02-21T02:15:38.258Z,1021.97
2019-02-21T02:16:38.255Z,1021.99
2019-02-21T02:17:38.204Z,1022.00
2019-02-21T02:18:38.208Z,1022.07
2019-02-21T02:19:38.185Z,1022.02
2019-02-21T02:20:38.266Z,1022.01
2019-02-21T02:21:38.179Z,1022.01
2019-02-21T02:22:38.146Z,1021.99
2019-02-21T02:23:38.132Z,1021.96
2019-02-21T02:24:38.134Z,1022.04
2019-02-21T02:25:38.129Z,1021.97
2019-02-21T02:26:38.133Z,1022.02
2019-02-21T02:27:38.096Z,1022.01
2019-02-21T02:28:38.085Z,1022.00
2019-02-21T02:29:38.070Z,1022.03
2019-02-21T02:30:38.061Z,1021.98
2019-02-21T02:31:38.069Z,1022.01
2019-02-21T02:32:38.049Z,1021.99
2019-02-21T02:33:38.025Z,1022.00
2019-02-21T02:34:38.015Z,1021.99
2019-02-21T02:35:38.005Z,1022.01
2019-02-21T02:36:38.012Z,1022.03
2019-02-21T02:37:38.089Z,1022.07
2019-02-21T02:38:37.972Z,1022.02
2019-02-21T02:39:37.983Z,1022.03
2019-02-21T02:40:37.972Z,1022.01
2019-02-21T02:41:37.939Z,1022.01
2019-02-21T02:42:37.943Z,1022.07
2019-02-21T02:43:37.924Z,1022.10
2019-02-21T02:44:37.903Z,1022.07
2019-02-21T02:45:37.892Z,1022.10
2019-02-21T02:46:37.887Z,1022.07
2019-02-21T02:47:37.887Z,1022.09
2019-02-21T02:48:37.895Z,1022.09
2019-02-21T02:49:37.851Z,1022.04
2019-02-21T02:50:37.840Z,1022.12
2019-02-21T02:51:37.836Z,1022.13
2019-02-21T02:52:37.842Z,1022.16
2019-02-21T02:53:37.942Z,1022.09
2019-02-21T02:54:37.812Z,1022.11
2019-02-21T02:55:37.789Z,1022.09
2019-02-21T02:56:37.796Z,1022.13
2019-02-21T02:57:37.763Z,1022.08
2019-02-21T02:58:37.746Z,1022.09
2019-02-21T02:59:41.137Z,1022.09
2019-02-21T03:00:37.727Z,1022.06
2019-02-21T03:01:37.723Z,1022.09
2019-02-21T03:02:37.711Z,1022.10
2019-02-21T03:03:37.711Z,1022.09
2019-02-21T03:04:37.706Z,1022.05
2019-02-21T03:05:37.699Z,1022.04
2019-02-21T03:06:37.787Z,1022.09
2019-02-21T03:07:37.663Z,1022.04
2019-02-21T03:08:37.699Z,1022.10
2019-02-21T03:09:37.697Z,1022.06
2019-02-21T03:10:37.642Z,1022.05
2019-02-21T03:11:37.603Z,1022.00
2019-02-21T03:12:37.592Z,1022.05
2019-02-21T03:13:37.585Z,1022.06
2019-02-21T03:14:37.571Z,1022.06
2019-02-21T03:15:37.581Z,1022.10
2019-02-21T03:16:37.559Z,1022.10
2019-02-21T03:17:37.538Z,1022.07
2019-02-21T03:18:37.527Z,1022.05
2019-02-21T03:19:37.519Z,1022.12
2019-02-21T03:20:37.527Z,1022.06
2019-02-21T03:21:37.491Z,1022.09
2019-02-21T03:22:37.522Z,1022.07
2019-02-21T03:23:37.477Z,1022.07
2019-02-21T03:24:37.459Z,1022.06
2019-02-21T03:25:37.449Z,1022.01
2019-02-21T03:26:37.456Z,1022.06
2019-02-21T03:27:37.423Z,1022.03
2019-02-21T03:28:37.419Z,1022.08
2019-02-21T03:29:37.405Z,1022.05
2019-02-21T03:30:37.498Z,1022.08
2019-02-21T03:31:53.527Z,1022.07
2019-02-21T03:32:38.392Z,1022.03
2019-02-21T03:33:37.408Z,1022.01
2019-02-21T03:34:37.373Z,1022.14
2019-02-21T03:35:37.515Z,1022.08
2019-02-21T03:36:37.369Z,1022.08
2019-02-21T03:37:37.390Z,1022.08
2019-02-21T03:38:37.354Z,1022.04
2019-02-21T03:39:37.298Z,1022.11
2019-02-21T03:40:37.323Z,1022.10
2019-02-21T03:41:37.279Z,1022.15
2019-02-21T03:42:37.257Z,1022.13
2019-02-21T03:43:37.263Z,1022.17
2019-02-21T03:44:37.240Z,1022.14
2019-02-21T03:45:37.246Z,1022.14
2019-02-21T03:46:37.215Z,1022.20
2019-02-21T03:47:37.198Z,1022.12
2019-02-21T03:48:37.227Z,1022.10
2019-02-21T03:49:37.327Z,1022.10
2019-02-21T03:50:37.175Z,1022.12
2019-02-21T03:51:37.154Z,1022.18
2019-02-21T03:52:37.166Z,1022.18
2019-02-21T03:53:37.161Z,1022.18
2019-02-21T03:54:37.160Z,1022.10
2019-02-21T03:55:37.112Z,1022.10
2019-02-21T03:56:37.108Z,1022.15
2019-02-21T03:57:37.095Z,1022.08
2019-02-21T03:58:37.084Z,1022.09
2019-02-21T03:59:37.093Z,1022.13
2019-02-21T04:00:37.083Z,1022.10
2019-02-21T04:01:37.058Z,1022.11
2019-02-21T04:02:37.101Z,1022.08
2019-02-21T04:03:37.021Z,1022.04
2019-02-21T04:04:37.058Z,1022.06
2019-02-21T04:05:37.037Z,1022.09
2019-02-21T04:06:36.993Z,1022.02
2019-02-21T04:07:36.990Z,1022.01
2019-02-21T04:08:36.977Z,1022.07
2019-02-21T04:09:36.969Z,1022.02
2019-02-21T04:10:37.118Z,1022.01
2019-02-21T04:11:36.953Z,1022.00
2019-02-21T04:12:36.930Z,1022.00
2019-02-21T04:13:36.938Z,1021.95
2019-02-21T04:14:36.901Z,1021.99
2019-02-21T04:15:36.946Z,1021.89
2019-02-21T04:16:36.882Z,1021.93
2019-02-21T04:17:36.905Z,1021.90
2019-02-21T04:18:36.863Z,1021.90
2019-02-21T04:19:36.846Z,1021.93
2019-02-21T04:20:36.837Z,1021.88
2019-02-21T04:21:36.861Z,1021.85
2019-02-21T04:22:36.824Z,1021.83
2019-02-21T04:23:36.807Z,1021.88
2019-02-21T04:24:36.793Z,1021.83
2019-02-21T04:25:36.782Z,1021.87
2019-02-21T04:26:36.921Z,1021.86
2019-02-21T04:27:36.766Z,1021.85
2019-02-21T04:28:36.756Z,1021.86
2019-02-21T04:29:36.844Z,1021.84
2019-02-21T04:30:36.752Z,1021.89
2019-02-21T04:31:36.713Z,1021.83
2019-02-21T04:32:36.703Z,1021.89
2019-02-21T04:33:36.698Z,1021.82
2019-02-21T04:34:36.697Z,1021.83
2019-02-21T04:35:36.712Z,1021.88
2019-02-21T04:36:36.665Z,1021.82
2019-02-21T04:37:36.680Z,1021.84
2019-02-21T04:38:36.645Z,1021.89
2019-02-21T04:39:36.631Z,1021.79
2019-02-21T04:40:36.658Z,1021.89
2019-02-21T04:41:36.609Z,1021.78
2019-02-21T04:42:36.603Z,1021.79
2019-02-21T04:43:36.591Z,1021.79
2019-02-21T04:44:36.573Z,1021.80
2019-02-21T04:45:37.338Z,1021.78
2019-02-21T04:46:36.590Z,1021.80
2019-02-21T04:47:36.568Z,1021.78
2019-02-21T04:48:36.532Z,1021.78
2019-02-21T04:49:36.530Z,1021.74
2019-02-21T04:50:36.513Z,1021.78
2019-02-21T04:51:36.502Z,1021.80
2019-02-21T04:52:36.598Z,1021.80
2019-02-21T04:53:36.478Z,1021.74
2019-02-21T04:54:36.477Z,1021.77
2019-02-21T04:55:36.452Z,1021.80
2019-02-21T04:56:36.469Z,1021.71
2019-02-21T04:57:36.472Z,1021.73
2019-02-21T04:58:36.438Z,1021.71
2019-02-21T04:59:36.411Z,1021.70
2019-02-21T05:00:36.409Z,1021.69
2019-02-21T05:01:36.388Z,1021.72
2019-02-21T05:02:36.412Z,1021.67
2019-02-21T05:03:36.386Z,1021.70
2019-02-21T05:04:36.389Z,1021.72
2019-02-21T05:05:36.341Z,1021.77
2019-02-21T05:06:36.416Z,1021.81
2019-02-21T05:07:36.327Z,1021.77
2019-02-21T05:08:36.320Z,1021.83
2019-02-21T05:09:36.356Z,1021.81
2019-02-21T05:10:36.286Z,1021.81
2019-02-21T05:11:36.283Z,1021.80
2019-02-21T05:12:36.259Z,1021.77
2019-02-21T05:13:36.262Z,1021.84
2019-02-21T05:14:36.257Z,1021.81
2019-02-21T05:15:36.294Z,1021.78
2019-02-21T05:16:36.218Z,1021.73
2019-02-21T05:17:36.242Z,1021.76
2019-02-21T05:18:36.203Z,1021.78
2019-02-21T05:19:36.204Z,1021.79
2019-02-21T05:20:36.194Z,1021.80
2019-02-21T05:21:36.171Z,1021.81
2019-02-21T05:22:36.152Z,1021.88
2019-02-21T05:23:36.857Z,1021.87
2019-02-21T05:24:36.135Z,1021.77
2019-02-21T05:25:36.233Z,1021.78
2019-02-21T05:26:36.147Z,1021.81
2019-02-21T05:27:36.129Z,1021.82
2019-02-21T05:28:36.198Z,1021.86
2019-02-21T05:29:36.084Z,1021.84
2019-02-21T05:30:36.440Z,1021.86
2019-02-21T05:31:36.057Z,1021.85
2019-02-21T05:32:40.928Z,1021.83
2019-02-21T05:33:37.211Z,1021.84
2019-02-21T05:34:36.031Z,1021.81
2019-02-21T05:35:36.018Z,1021.80
2019-02-21T05:36:36.005Z,1021.81
2019-02-21T05:37:35.990Z,1021.71
2019-02-21T05:38:36.094Z,1021.74
2019-02-21T05:39:35.973Z,1021.74
2019-02-21T05:40:35.957Z,1021.68
2019-02-21T05:41:36.039Z,1021.73
2019-02-21T05:42:35.938Z,1021.72
2019-02-21T05:43:37.263Z,1021.78
2019-02-21T05:44:35.920Z,1021.78
2019-02-21T05:45:35.902Z,1021.80
2019-02-21T05:46:35.891Z,1021.83
2019-02-21T05:47:35.904Z,1021.83
2019-02-21T05:48:35.893Z,1021.84
2019-02-21T05:49:35.879Z,1021.80
2019-02-21T05:50:35.883Z,1021.88
2019-02-21T05:51:35.840Z,1021.86
2019-02-21T05:52:35.842Z,1021.83
2019-02-21T05:53:35.855Z,1021.86
2019-02-21T05:54:35.846Z,1021.92
2019-02-21T05:55:35.791Z,1021.84
2019-02-21T05:56:35.789Z,1021.80
2019-02-21T05:57:35.765Z,1021.85
2019-02-21T05:58:35.755Z,1021.87
2019-02-21T05:59:35.786Z,1021.87
2019-02-21T06:00:36.925Z,1021.89
2019-02-21T06:01:35.728Z,1021.88
2019-02-21T06:02:35.845Z,1021.86
2019-02-21T06:03:36.209Z,1021.85
2019-02-21T06:04:35.718Z,1021.91
2019-02-21T06:05:35.733Z,1021.90
2019-02-21T06:06:35.707Z,1021.92
2019-02-21T06:07:35.653Z,1021.90
2019-02-21T06:08:35.710Z,1021.90
2019-02-21T06:09:35.648Z,1021.90
2019-02-21T06:10:35.643Z,1021.95
2019-02-21T06:11:35.709Z,1021.98
2019-02-21T06:12:35.602Z,1021.97
2019-02-21T06:13:35.588Z,1021.96
2019-02-21T06:14:35.574Z,1021.90
2019-02-21T06:15:35.592Z,1021.89
2019-02-21T06:16:35.565Z,1021.89
2019-02-21T06:17:35.579Z,1021.91
2019-02-21T06:18:35.537Z,1021.90
2019-02-21T06:19:35.523Z,1021.86
2019-02-21T06:20:35.516Z,1021.94
2019-02-21T06:21:35.616Z,1021.95
2019-02-21T06:22:35.490Z,1021.98
2019-02-21T06:23:35.563Z,1021.96
2019-02-21T06:24:35.540Z,1021.97
2019-02-21T06:25:35.454Z,1022.01
2019-02-21T06:26:35.455Z,1022.00
2019-02-21T06:27:37.984Z,1022.10
2019-02-21T06:28:35.458Z,1022.13
2019-02-21T06:29:35.472Z,1022.14
2019-02-21T06:30:35.406Z,1022.15
2019-02-21T06:31:35.389Z,1022.15
2019-02-21T06:32:35.444Z,1022.22
2019-02-21T06:33:35.422Z,1022.23
2019-02-21T06:34:35.389Z,1022.18
2019-02-21T06:35:35.374Z,1022.18
2019-02-21T06:36:35.332Z,1022.24
2019-02-21T06:37:37.750Z,1022.18
2019-02-21T06:38:35.321Z,1022.14
2019-02-21T06:39:35.324Z,1022.11
2019-02-21T06:40:36.557Z,1022.17
2019-02-21T06:41:35.310Z,1022.14
2019-02-21T06:42:35.266Z,1022.14
2019-02-21T06:43:35.285Z,1022.21
2019-02-21T06:44:37.870Z,1022.18
2019-02-21T06:45:35.342Z,1022.16
2019-02-21T06:46:35.254Z,1022.18
2019-02-21T06:47:35.224Z,1022.19
2019-02-21T06:48:35.219Z,1022.25
2019-02-21T06:49:35.188Z,1022.20
2019-02-21T06:50:35.199Z,1022.31
2019-02-21T06:51:35.193Z,1022.24
2019-02-21T06:52:35.165Z,1022.29
2019-02-21T06:53:35.147Z,1022.24
2019-02-21T06:54:35.138Z,1022.28
2019-02-21T06:55:35.132Z,1022.26
2019-02-21T06:56:35.139Z,1022.23
2019-02-21T06:57:35.111Z,1022.23
2019-02-21T06:58:35.105Z,1022.24
2019-02-21T06:59:42.470Z,1022.20
2019-02-21T07:00:36.071Z,1022.26
2019-02-21T07:01:35.205Z,1022.19
2019-02-21T07:02:35.044Z,1022.24
2019-02-21T07:03:35.034Z,1022.25
2019-02-21T07:04:35.042Z,1022.24
2019-02-21T07:05:36.869Z,1022.24
2019-02-21T07:06:34.995Z,1022.25
2019-02-21T07:07:35.015Z,1022.26
2019-02-21T07:08:35.006Z,1022.26
2019-02-21T07:09:34.964Z,1022.26
2019-02-21T07:10:34.962Z,1022.35
2019-02-21T07:11:34.945Z,1022.31
2019-02-21T07:12:34.937Z,1022.32
2019-02-21T07:13:34.953Z,1022.34
2019-02-21T07:14:34.932Z,1022.40
2019-02-21T07:15:34.899Z,1022.43
2019-02-21T07:16:37.240Z,1022.40
2019-02-21T07:17:34.924Z,1022.35
2019-02-21T07:18:34.865Z,1022.38
2019-02-21T07:19:34.858Z,1022.36
2019-02-21T07:20:34.893Z,1022.33
2019-02-21T07:21:36.599Z,1022.37
2019-02-21T07:22:34.830Z,1022.36
2019-02-21T07:23:43.095Z,1022.36
2019-02-21T07:24:38.346Z,1022.30
2019-02-21T07:25:34.875Z,1022.38
2019-02-21T07:26:34.786Z,1022.43
2019-02-21T07:27:34.766Z,1022.41
2019-02-21T07:28:34.787Z,1022.40
2019-02-21T07:29:34.769Z,1022.47
2019-02-21T07:30:34.748Z,1022.49
2019-02-21T07:31:34.732Z,1022.49
2019-02-21T07:32:34.710Z,1022.47
2019-02-21T07:33:34.713Z,1022.46
2019-02-21T07:34:34.694Z,1022.46
2019-02-21T07:35:34.705Z,1022.45
2019-02-21T07:36:34.664Z,1022.43
2019-02-21T07:37:34.660Z,1022.46
2019-02-21T07:38:34.646Z,1022.44
2019-02-21T07:39:36.242Z,1022.40
2019-02-21T07:40:34.619Z,1022.38
2019-02-21T07:41:34.755Z,1022.39
2019-02-21T07:42:34.602Z,1022.34
2019-02-21T07:43:34.586Z,1022.40
2019-02-21T07:44:34.577Z,1022.36
2019-02-21T07:45:36.326Z,1022.37
2019-02-21T07:46:34.590Z,1022.38
2019-02-21T07:47:34.542Z,1022.49
2019-02-21T07:48:36.368Z,1022.47
2019-02-21T07:49:34.515Z,1022.41
2019-02-21T07:50:34.513Z,1022.39
2019-02-21T07:51:35.988Z,1022.51
2019-02-21T07:52:34.489Z,1022.46
2019-02-21T07:53:34.516Z,1022.48
2019-02-21T07:54:34.469Z,1022.53
2019-02-21T07:55:34.457Z,1022.55
2019-02-21T07:56:41.522Z,1022.55
2019-02-21T07:57:35.450Z,1022.62
2019-02-21T07:58:34.420Z,1022.57
2019-02-21T07:59:34.412Z,1022.60
2019-02-21T08:00:34.471Z,1022.69
2019-02-21T08:01:34.402Z,1022.70
2019-02-21T08:02:34.429Z,1022.71
2019-02-21T08:03:43.928Z,1022.75
2019-02-21T08:04:37.083Z,1022.71
2019-02-21T08:05:34.359Z,1022.71
2019-02-21T08:06:34.335Z,1022.64
2019-02-21T08:07:34.319Z,1022.67
2019-02-21T08:08:34.312Z,1022.71
2019-02-21T08:09:34.335Z,1022.72
2019-02-21T08:10:34.316Z,1022.73
2019-02-21T08:11:34.306Z,1022.73
2019-02-21T08:12:34.276Z,1022.69
2019-02-21T08:13:34.281Z,1022.67
2019-02-21T08:14:34.256Z,1022.70
2019-02-21T08:15:34.261Z,1022.67
2019-02-21T08:16:34.228Z,1022.71
2019-02-21T08:17:34.209Z,1022.67
2019-02-21T08:18:34.216Z,1022.76
2019-02-21T08:19:34.183Z,1022.76
2019-02-21T08:20:40.407Z,1022.73
2019-02-21T08:21:35.278Z,1022.74
2019-02-21T08:22:34.168Z,1022.72
2019-02-21T08:23:34.154Z,1022.77
2019-02-21T08:24:34.144Z,1022.74
2019-02-21T08:25:34.123Z,1022.77
2019-02-21T08:26:34.131Z,1022.85
2019-02-21T08:27:35.277Z,1022.85
2019-02-21T08:28:34.093Z,1022.90
2019-02-21T08:29:34.099Z,1022.93
2019-02-21T08:30:34.066Z,1022.95
2019-02-21T08:31:34.085Z,1022.92
2019-02-21T08:32:34.046Z,1022.97
2019-02-21T08:33:34.031Z,1022.92
2019-02-21T08:34:34.019Z,1022.86
2019-02-21T08:35:34.011Z,1022.90
2019-02-21T08:36:33.997Z,1022.93
2019-02-21T08:37:36.006Z,1022.89
2019-02-21T08:38:33.974Z,1022.94
2019-02-21T08:39:33.973Z,1022.90
2019-02-21T08:40:34.006Z,1022.95
2019-02-21T08:41:33.942Z,1022.93
2019-02-21T08:42:33.972Z,1023.00
2019-02-21T08:43:33.937Z,1022.96
2019-02-21T08:44:33.914Z,1022.96
2019-02-21T08:45:33.897Z,1022.98
2019-02-21T08:46:33.887Z,1022.97
2019-02-21T08:47:33.873Z,1022.95
2019-02-21T08:48:33.888Z,1022.98
2019-02-21T08:49:33.888Z,1023.04
2019-02-21T08:50:33.841Z,1023.13
2019-02-21T08:51:33.831Z,1023.14
2019-02-21T08:52:33.824Z,1023.07
2019-02-21T08:53:33.808Z,1023.04
2019-02-21T08:54:33.801Z,1023.03
2019-02-21T08:55:33.808Z,1023.01
2019-02-21T08:56:33.789Z,1023.03
2019-02-21T08:57:33.774Z,1022.99
2019-02-21T08:58:33.820Z,1023.14
2019-02-21T08:59:33.783Z,1023.09
2019-02-21T09:00:33.731Z,1023.05
2019-02-21T09:01:33.730Z,1022.99
2019-02-21T09:02:35.917Z,1022.97
2019-02-21T09:03:33.748Z,1023.00
2019-02-21T09:04:33.741Z,1022.97
2019-02-21T09:05:33.673Z,1023.01
2019-02-21T09:06:33.664Z,1023.03
2019-02-21T09:07:33.660Z,1023.04
2019-02-21T09:08:36.948Z,1023.04
2019-02-21T09:09:34.390Z,1023.13
2019-02-21T09:10:33.650Z,1023.25
2019-02-21T09:11:33.619Z,1023.24
2019-02-21T09:12:33.601Z,1023.20
2019-02-21T09:13:33.633Z,1023.14
2019-02-21T09:14:33.594Z,1023.10
2019-02-21T09:15:33.575Z,1023.15
2019-02-21T09:16:33.560Z,1023.21
2019-02-21T09:17:33.549Z,1023.21
2019-02-21T09:18:33.565Z,1023.25
2019-02-21T09:19:33.522Z,1023.27
2019-02-21T09:20:33.560Z,1023.30
2019-02-21T09:21:33.538Z,1023.31
2019-02-21T09:22:33.489Z,1023.26
2019-02-21T09:23:33.493Z,1023.24
2019-02-21T09:24:39.132Z,1023.19
2019-02-21T09:25:34.509Z,1023.25
2019-02-21T09:26:34.713Z,1023.28
2019-02-21T09:27:33.430Z,1023.29
2019-02-21T09:28:33.429Z,1023.25
2019-02-21T09:29:33.406Z,1023.28
2019-02-21T09:30:33.396Z,1023.29
2019-02-21T09:31:33.406Z,1023.23
2019-02-21T09:32:33.386Z,1023.20
2019-02-21T09:33:33.368Z,1023.25
2019-02-21T09:34:33.359Z,1023.27
2019-02-21T09:35:33.348Z,1023.34
2019-02-21T09:36:33.453Z,1023.25
2019-02-21T09:37:33.340Z,1023.21
2019-02-21T09:38:34.744Z,1023.19
2019-02-21T09:39:33.316Z,1023.17
2019-02-21T09:40:33.286Z,1023.26
2019-02-21T09:41:33.304Z,1023.24
2019-02-21T09:42:33.261Z,1023.22
2019-02-21T09:43:33.252Z,1023.23
2019-02-21T09:44:35.753Z,1023.18
2019-02-21T09:45:33.231Z,1023.20
2019-02-21T09:46:33.231Z,1023.09
2019-02-21T09:47:33.254Z,1023.14
2019-02-21T09:48:33.230Z,1023.13
2019-02-21T09:49:33.304Z,1023.27
2019-02-21T09:50:33.235Z,1023.16
2019-02-21T09:51:33.170Z,1023.11
2019-02-21T09:52:33.148Z,1023.18
2019-02-21T09:53:33.159Z,1023.19
2019-02-21T09:54:33.169Z,1023.26
2019-02-21T09:55:33.122Z,1023.25
2019-02-21T09:56:33.117Z,1023.27
2019-02-21T09:57:33.233Z,1023.15
2019-02-21T09:58:33.090Z,1023.23
2019-02-21T09:59:33.073Z,1023.19
2019-02-21T10:00:35.832Z,1023.26
2019-02-21T10:01:33.056Z,1023.28
2019-02-21T10:02:33.036Z,1023.38
2019-02-21T10:03:33.033Z,1023.36
2019-02-21T10:04:33.025Z,1023.48
2019-02-21T10:05:33.035Z,1023.43
2019-02-21T10:06:33.034Z,1023.46
2019-02-21T10:07:32.983Z,1023.48
2019-02-21T10:08:32.985Z,1023.54
2019-02-21T10:09:32.963Z,1023.50
2019-02-21T10:10:32.962Z,1023.56
2019-02-21T10:11:32.979Z,1023.58
2019-02-21T10:12:32.960Z,1023.66
2019-02-21T10:13:33.088Z,1023.64
2019-02-21T10:14:32.913Z,1023.60
2019-02-21T10:15:32.903Z,1023.61
2019-02-21T10:16:32.947Z,1023.57
2019-02-21T10:17:32.902Z,1023.56
2019-02-21T10:18:32.942Z,1023.57
2019-02-21T10:19:35.401Z,1023.68
2019-02-21T10:20:32.843Z,1023.63
2019-02-21T10:21:32.842Z,1023.65
2019-02-21T10:22:33.426Z,1023.64
2019-02-21T10:23:32.831Z,1023.56
2019-02-21T10:24:32.800Z,1023.57
2019-02-21T10:25:32.790Z,1023.56
2019-02-21T10:26:32.787Z,1023.55
2019-02-21T10:27:32.762Z,1023.55
2019-02-21T10:28:32.770Z,1023.57
2019-02-21T10:29:33.393Z,1023.58
2019-02-21T10:30:32.773Z,1023.53
2019-02-21T10:31:32.731Z,1023.59
2019-02-21T10:32:32.721Z,1023.52
2019-02-21T10:33:32.700Z,1023.59
2019-02-21T10:34:42.466Z,1023.54
2019-02-21T10:35:33.713Z,1023.58
2019-02-21T10:36:32.665Z,1023.50
2019-02-21T10:37:32.653Z,1023.55
2019-02-21T10:38:32.646Z,1023.60
2019-02-21T10:39:32.645Z,1023.60
2019-02-21T10:40:33.443Z,1023.58
2019-02-21T10:41:32.628Z,1023.56
2019-02-21T10:42:32.614Z,1023.52
2019-02-21T10:43:32.595Z,1023.44
2019-02-21T10:44:32.610Z,1023.53
2019-02-21T10:45:32.564Z,1023.42
2019-02-21T10:46:32.551Z,1023.37
2019-02-21T10:47:32.544Z,1023.41
2019-02-21T10:48:32.556Z,1023.45
2019-02-21T10:49:32.521Z,1023.42
2019-02-21T10:50:32.532Z,1023.42
2019-02-21T10:51:32.502Z,1023.40
2019-02-21T10:52:32.484Z,1023.36
2019-02-21T10:53:32.631Z,1023.35
2019-02-21T10:54:32.466Z,1023.31
2019-02-21T10:55:32.454Z,1023.33
2019-02-21T10:56:32.494Z,1023.38
2019-02-21T10:57:32.428Z,1023.38
2019-02-21T10:58:32.416Z,1023.40
2019-02-21T10:59:32.446Z,1023.42
2019-02-21T11:00:32.408Z,1023.44
2019-02-21T11:01:32.410Z,1023.41
2019-02-21T11:02:32.376Z,1023.38
2019-02-21T11:03:32.359Z,1023.38
2019-02-21T11:04:32.376Z,1023.43
2019-02-21T11:05:32.444Z,1023.42
2019-02-21T11:06:32.338Z,1023.40
2019-02-21T11:07:32.323Z,1023.48
2019-02-21T11:08:32.326Z,1023.41
2019-02-21T11:09:32.899Z,1023.38
2019-02-21T11:10:32.303Z,1023.36
2019-02-21T11:11:32.267Z,1023.42
2019-02-21T11:12:32.303Z,1023.38
2019-02-21T11:13:32.250Z,1023.34
2019-02-21T11:14:32.235Z,1023.36
2019-02-21T11:15:32.257Z,1023.31
2019-02-21T11:16:32.211Z,1023.36
2019-02-21T11:17:32.194Z,1023.29
2019-02-21T11:18:32.197Z,1023.26
2019-02-21T11:19:32.186Z,1023.20
2019-02-21T11:20:32.192Z,1023.22
2019-02-21T11:21:32.163Z,1023.14
2019-02-21T11:22:32.143Z,1023.19
2019-02-21T11:23:32.161Z,1023.22
2019-02-21T11:24:32.117Z,1023.20
2019-02-21T11:25:32.114Z,1023.16
2019-02-21T11:26:32.097Z,1023.14
2019-02-21T11:27:32.089Z,1023.17
2019-02-21T11:28:32.103Z,1023.16
2019-02-21T11:29:32.065Z,1023.17
2019-02-21T11:30:32.049Z,1023.18
2019-02-21T11:31:32.042Z,1023.12
2019-02-21T11:32:32.029Z,1023.10
2019-02-21T11:33:32.090Z,1023.06
2019-02-21T11:34:32.042Z,1023.22
2019-02-21T11:35:31.996Z,1023.17
2019-02-21T11:36:31.989Z,1023.20
2019-02-21T11:37:42.349Z,1023.17
2019-02-21T11:38:32.972Z,1023.28
2019-02-21T11:39:31.955Z,1023.29
2019-02-21T11:40:31.988Z,1023.32
2019-02-21T11:41:31.938Z,1023.29
2019-02-21T11:42:31.917Z,1023.29
2019-02-21T11:43:38.975Z,1023.29
2019-02-21T11:44:31.907Z,1023.32
2019-02-21T11:45:31.886Z,1023.30
2019-02-21T11:46:31.914Z,1023.29
2019-02-21T11:47:31.871Z,1023.25
2019-02-21T11:48:31.852Z,1023.24
2019-02-21T11:49:31.977Z,1023.21
2019-02-21T11:50:31.852Z,1023.26
2019-02-21T11:51:31.825Z,1023.27
2019-02-21T11:52:32.439Z,1023.30
2019-02-21T11:53:31.798Z,1023.25
2019-02-21T11:54:31.789Z,1023.21
2019-02-21T11:55:31.856Z,1023.25
2019-02-21T11:56:31.767Z,1023.24
2019-02-21T11:57:31.753Z,1023.26
2019-02-21T11:58:31.744Z,1023.30
2019-02-21T11:59:31.734Z,1023.33
2019-02-21T12:00:31.770Z,1023.39
2019-02-21T12:01:31.768Z,1023.38
2019-02-21T12:02:38.583Z,1023.32
2019-02-21T12:03:32.695Z,1023.35
2019-02-21T12:04:31.734Z,1023.35
2019-02-21T12:05:32.293Z,1023.31